Time;durP1;ratioP1;P1;durP2;ratioP2;P2;SDS_P1;SDS_P2;PMS_P1;PMS_P2;Temp;Humidity;BMP_temperature;BMP_pressure;BME280_temperature;BME280_humidity;BME280_pressure;Samples;Min_cycle;Max_cycle;Signal;HPM_P1;HPM_P2
2022/04/29 00:01:17;;;;;;;5.03;3.22;;;10.40;63.90;;;;;;5046265;28;20103;-73
2022/04/29 00:03:42;;;;;;;3.97;2.97;;;10.40;64.00;;;;;;5045385;28;20700;-72
2022/04/29 00:06:08;;;;;;;8.50;4.43;;;10.40;64.20;;;;;;5040041;28;20572;-72
2022/04/29 00:08:34;;;;;;;7.20;3.65;;;10.30;64.30;;;;;;5001152;28;20539;-71
2022/04/29 00:10:59;;;;;;;5.93;3.30;;;10.30;64.40;;;;;;5036817;28;20497;-71
2022/04/29 00:13:25;;;;;;;4.78;3.22;;;10.20;64.60;;;;;;5021499;28;20143;-71
2022/04/29 00:15:50;;;;;;;4.32;3.60;;;10.10;64.80;;;;;;5018410;28;20124;-71
2022/04/29 00:18:16;;;;;;;4.40;3.58;;;10.10;65.00;;;;;;5019664;28;20085;-71
2022/04/29 00:20:42;;;;;;;4.60;3.50;;;10.10;65.10;;;;;;5025168;28;20393;-72
2022/04/29 00:23:08;;;;;;;6.72;3.20;;;10.10;65.20;;;;;;5020877;28;20064;-71
2022/04/29 00:25:33;;;;;;;6.30;3.10;;;10.10;65.20;;;;;;5037789;28;20749;-73
2022/04/29 00:27:59;;;;;;;3.63;2.95;;;10.00;65.20;;;;;;5056765;28;20037;-72
2022/04/29 00:30:24;;;;;;;5.32;3.63;;;10.10;65.30;;;;;;5039993;28;20064;-73
2022/04/29 00:32:50;;;;;;;4.65;3.22;;;10.10;65.40;;;;;;5023388;28;20617;-71
2022/04/29 00:35:15;;;;;;;4.22;3.67;;;10.00;65.40;;;;;;5014730;28;20041;-71
2022/04/29 00:37:56;;;;;;;4.50;3.30;;;9.90;65.30;;;;;;5056680;28;20033;-72
2022/04/29 00:40:23;;;;;;;3.25;2.80;;;9.90;65.60;;;;;;5030846;28;20532;-73
2022/04/29 00:42:49;;;;;;;3.30;3.00;;;9.90;65.60;;;;;;5057470;28;20128;-71
2022/04/29 00:45:16;;;;;;;5.57;3.45;;;9.90;65.60;;;;;;5035807;28;20064;-71
2022/04/29 00:47:42;;;;;;;3.60;3.30;;;9.80;65.70;;;;;;5029783;28;20129;-73
2022/04/29 00:50:08;;;;;;;4.18;3.47;;;9.80;65.80;;;;;;5030768;28;20611;-72
2022/04/29 00:52:35;;;;;;;5.28;3.10;;;9.80;65.90;;;;;;5021554;28;20822;-72
2022/04/29 00:55:04;;;;;;;3.55;3.15;;;9.80;66.00;;;;;;5017632;28;20041;-72
2022/04/29 00:57:47;;;;;;;4.18;2.90;;;9.80;66.20;;;;;;5033851;28;20029;-72
2022/04/29 01:00:18;;;;;;;4.55;3.13;;;9.80;66.50;;;;;;5036085;28;20040;-71
2022/04/29 01:02:48;;;;;;;5.07;2.93;;;9.70;66.30;;;;;;5018129;28;20102;-71
2022/04/29 01:05:15;;;;;;;3.85;3.40;;;9.70;66.30;;;;;;5057180;28;20310;-71
2022/04/29 01:07:42;;;;;;;6.32;3.22;;;9.70;66.40;;;;;;4995682;28;20398;-71
2022/04/29 01:10:10;;;;;;;3.47;3.17;;;9.70;66.50;;;;;;5020762;28;20029;-71
2022/04/29 01:12:37;;;;;;;3.55;3.25;;;9.70;66.60;;;;;;5022812;28;20049;-73
2022/04/29 01:15:13;;;;;;;4.45;3.63;;;9.60;66.50;;;;;;5036717;28;20119;-71
2022/04/29 01:17:39;;;;;;;4.00;3.63;;;9.60;66.90;;;;;;5010933;28;20035;-72
2022/04/29 01:20:09;;;;;;;4.22;3.60;;;9.60;66.70;;;;;;5058247;28;20084;-71
2022/04/29 01:22:35;;;;;;;3.70;3.40;;;9.50;66.80;;;;;;5008336;28;20037;-71
2022/04/29 01:25:00;;;;;;;3.65;3.35;;;9.50;67.00;;;;;;5048831;28;20051;-71
2022/04/29 01:27:26;;;;;;;4.22;3.80;;;9.50;67.80;;;;;;5022877;28;20033;-71
2022/04/29 01:30:00;;;;;;;3.97;3.58;;;9.50;67.20;;;;;;5029566;28;20088;-71
2022/04/29 01:32:26;;;;;;;3.70;2.95;;;9.40;67.40;;;;;;5039030;28;20046;-72
2022/04/29 01:34:52;;;;;;;4.60;3.50;;;9.40;67.30;;;;;;5000244;28;20065;-72
2022/04/29 01:37:18;;;;;;;4.75;3.83;;;9.30;67.40;;;;;;5059538;28;20076;-72
2022/04/29 01:39:43;;;;;;;5.32;3.60;;;9.30;67.60;;;;;;5020750;28;20551;-71
2022/04/29 01:42:10;;;;;;;3.67;3.20;;;9.30;67.60;;;;;;5012966;28;20144;-71
2022/04/29 01:44:36;;;;;;;7.07;3.58;;;9.20;67.70;;;;;;5038956;28;20044;-71
2022/04/29 01:47:02;;;;;;;5.15;3.70;;;9.20;67.70;;;;;;5034324;28;20048;-71
2022/04/29 01:49:27;;;;;;;5.30;3.80;;;9.20;67.90;;;;;;5030766;28;20565;-71
2022/04/29 01:51:54;;;;;;;4.78;3.65;;;9.20;67.90;;;;;;5032648;28;20045;-73
2022/04/29 01:54:19;;;;;;;5.18;4.00;;;9.10;68.00;;;;;;5032306;28;20095;-72
2022/04/29 01:56:47;;;;;;;3.92;3.53;;;9.10;68.10;;;;;;5061373;28;20040;-71
2022/04/29 01:59:13;;;;;;;4.47;3.30;;;9.10;68.20;;;;;;5042145;28;20021;-73
2022/04/29 02:01:38;;;;;;;5.03;3.50;;;9.00;68.30;;;;;;5020643;28;20106;-71
2022/04/29 02:04:04;;;;;;;5.22;3.83;;;9.00;68.40;;;;;;5042665;28;20071;-71
2022/04/29 02:06:29;;;;;;;5.78;4.10;;;9.00;69.30;;;;;;5044386;28;20028;-72
2022/04/29 02:08:55;;;;;;;3.78;3.45;;;9.00;68.50;;;;;;5028422;28;20041;-71
2022/04/29 02:11:21;;;;;;;5.75;4.07;;;9.00;68.60;;;;;;5038585;28;20033;-71
2022/04/29 02:13:46;;;;;;;5.10;3.63;;;8.90;68.60;;;;;;5023977;28;20041;-71
2022/04/29 02:16:13;;;;;;;5.78;3.63;;;8.90;68.70;;;;;;5020980;28;20106;-71
2022/04/29 02:18:39;;;;;;;7.45;3.95;;;8.80;68.80;;;;;;5034790;28;20079;-72
2022/04/29 02:21:04;;;;;;;5.32;3.75;;;8.80;68.80;;;;;;5040268;28;20068;-71
2022/04/29 02:23:30;;;;;;;4.85;3.70;;;8.80;68.90;;;;;;5047794;28;20044;-71
2022/04/29 02:25:57;;;;;;;6.05;3.53;;;8.80;69.00;;;;;;5021810;28;20041;-71
2022/04/29 02:28:23;;;;;;;5.07;4.13;;;8.80;69.10;;;;;;5007763;28;20041;-71
2022/04/29 02:30:49;;;;;;;4.65;3.78;;;8.80;69.10;;;;;;5042427;28;20467;-72
2022/04/29 02:33:14;;;;;;;5.03;4.32;;;8.80;69.20;;;;;;5030462;28;20037;-71
2022/04/29 02:35:40;;;;;;;5.68;4.10;;;8.70;69.20;;;;;;5058466;28;20033;-72
2022/04/29 02:38:05;;;;;;;5.25;3.55;;;8.60;69.20;;;;;;5035089;28;20045;-71
2022/04/29 02:40:31;;;;;;;4.03;3.53;;;8.60;69.40;;;;;;5029535;28;20029;-71
2022/04/29 02:42:56;;;;;;;9.20;4.65;;;8.60;69.60;;;;;;5040235;28;20489;-71
2022/04/29 02:45:22;;;;;;;4.65;3.72;;;8.50;69.60;;;;;;5022528;28;20079;-71
2022/04/29 02:47:47;;;;;;;6.93;4.28;;;8.60;69.70;;;;;;5029683;28;20975;-71
2022/04/29 02:50:13;;;;;;;5.10;3.90;;;8.50;69.60;;;;;;5036346;28;20040;-72
2022/04/29 02:52:38;;;;;;;8.27;3.72;;;8.50;69.60;;;;;;5042517;28;20040;-71
2022/04/29 02:55:04;;;;;;;3.85;3.45;;;8.50;69.80;;;;;;5024643;28;20051;-71
2022/04/29 02:57:30;;;;;;;7.25;3.78;;;8.50;69.80;;;;;;5018872;28;20033;-71
2022/04/29 02:59:56;;;;;;;5.18;3.85;;;8.50;70.00;;;;;;5054944;28;20398;-71
2022/04/29 03:02:21;;;;;;;5.55;4.20;;;8.40;70.00;;;;;;5023521;28;20040;-71
2022/04/29 03:04:47;;;;;;;4.35;3.95;;;8.40;70.00;;;;;;5040170;28;20083;-72
2022/04/29 03:07:12;;;;;;;5.90;3.65;;;8.40;70.00;;;;;;5041973;28;20136;-72
2022/04/29 03:09:38;;;;;;;7.38;3.97;;;8.40;70.10;;;;;;5024551;28;20036;-72
2022/04/29 03:12:04;;;;;;;5.60;3.88;;;8.30;70.00;;;;;;5042065;28;20033;-71
2022/04/29 03:14:29;;;;;;;5.38;4.40;;;8.30;70.20;;;;;;5016868;28;20033;-71
2022/04/29 03:16:55;;;;;;;6.55;3.67;;;8.30;70.30;;;;;;5033608;28;20578;-71
2022/04/29 03:19:20;;;;;;;4.60;4.13;;;8.30;70.60;;;;;;5042147;28;20036;-72
2022/04/29 03:21:47;;;;;;;7.45;4.93;;;8.30;70.50;;;;;;5044365;28;20025;-72
2022/04/29 03:24:12;;;;;;;5.72;3.85;;;8.20;70.50;;;;;;5051587;28;20035;-71
2022/04/29 03:26:38;;;;;;;5.78;4.85;;;8.20;70.60;;;;;;5040294;28;20108;-74
2022/04/29 03:29:04;;;;;;;5.15;4.35;;;8.20;70.80;;;;;;5045669;28;20064;-72
2022/04/29 03:31:30;;;;;;;4.35;3.95;;;8.20;70.90;;;;;;5036481;28;20148;-72
2022/04/29 03:33:55;;;;;;;6.47;4.05;;;8.20;70.90;;;;;;5050009;28;20045;-71
2022/04/29 03:36:21;;;;;;;5.47;4.10;;;8.20;70.90;;;;;;5016016;28;20387;-71
2022/04/29 03:38:46;;;;;;;5.85;4.15;;;8.20;71.00;;;;;;5030931;28;20098;-71
2022/04/29 03:41:12;;;;;;;4.47;3.63;;;8.20;71.80;;;;;;5045294;28;20028;-71
2022/04/29 03:43:38;;;;;;;7.28;4.07;;;8.20;71.10;;;;;;5015795;28;20883;-73
2022/04/29 03:46:05;;;;;;;6.25;4.18;;;8.20;71.10;;;;;;5034869;28;20562;-71
2022/04/29 03:49:35;;;;;;;6.30;3.80;;;8.10;71.20;;;;;;5028680;28;20044;-71
2022/04/29 03:51:16;;;;;;;5.60;3.78;;;8.10;71.20;;;;;;5017183;28;20158;-72
2022/04/29 03:53:41;;;;;;;8.43;4.70;;;8.10;71.20;;;;;;5038664;28;20040;-71
2022/04/29 03:56:07;;;;;;;5.78;4.47;;;8.10;71.30;;;;;;5028053;28;20044;-71
2022/04/29 03:58:32;;;;;;;5.97;4.90;;;8.10;71.40;;;;;;5039405;28;20032;-71
2022/04/29 04:00:58;;;;;;;5.10;4.57;;;8.00;71.40;;;;;;5021766;28;20036;-71
2022/04/29 04:03:23;;;;;;;8.35;4.95;;;8.00;71.60;;;;;;5007094;28;20037;-71
2022/04/29 04:08:35;;;;;;;8.40;4.85;;;8.00;71.70;;;;;;5053725;28;20111;-71
2022/04/29 04:11:01;;;;;;;5.88;4.47;;;7.90;71.60;;;;;;5041273;28;20502;-72
2022/04/29 04:13:27;;;;;;;5.93;4.50;;;7.90;71.70;;;;;;5039951;28;20036;-71
2022/04/29 04:15:52;;;;;;;5.40;4.60;;;7.90;71.90;;;;;;5048134;28;20040;-71
2022/04/29 04:18:18;;;;;;;6.45;4.78;;;7.90;72.00;;;;;;5055410;28;20138;-72
2022/04/29 04:20:43;;;;;;;7.25;4.85;;;7.80;72.00;;;;;;5014273;28;20136;-72
2022/04/29 04:23:09;;;;;;;5.72;4.55;;;7.80;72.10;;;;;;5058283;28;20057;-71
2022/04/29 04:25:34;;;;;;;6.70;4.40;;;7.80;72.10;;;;;;5024510;28;20067;-72
2022/04/29 04:28:00;;;;;;;6.93;4.65;;;7.80;72.20;;;;;;5058384;28;20075;-73
2022/04/29 04:30:26;;;;;;;8.43;4.20;;;7.90;72.30;;;;;;5020816;28;20049;-72
2022/04/29 04:32:51;;;;;;;7.35;4.70;;;7.90;72.40;;;;;;5046126;28;20055;-72
2022/04/29 04:35:17;;;;;;;6.53;4.40;;;7.80;72.40;;;;;;5056631;28;20048;-72
2022/04/29 04:37:43;;;;;;;5.85;4.38;;;7.80;72.40;;;;;;5041623;28;20678;-71
2022/04/29 04:40:10;;;;;;;5.38;4.30;;;7.80;72.40;;;;;;5055970;28;20037;-72
2022/04/29 04:42:45;;;;;;;9.82;4.63;;;7.80;72.50;;;;;;5040973;28;20073;-72
2022/04/29 04:45:11;;;;;;;6.82;4.30;;;7.80;73.10;;;;;;5058877;28;20036;-71
2022/04/29 04:47:37;;;;;;;5.85;4.85;;;7.80;72.60;;;;;;5032534;28;20097;-72
2022/04/29 04:50:03;;;;;;;5.20;4.70;;;7.80;72.70;;;;;;5040305;28;20480;-71
2022/04/29 04:52:28;;;;;;;6.38;5.35;;;7.80;72.70;;;;;;5023135;28;20041;-71
2022/04/29 04:54:54;;;;;;;6.53;4.93;;;7.80;72.80;;;;;;5019732;28;20025;-71
2022/04/29 04:57:19;;;;;;;5.13;4.60;;;7.80;72.90;;;;;;5038275;28;20045;-72
2022/04/29 04:59:45;;;;;;;7.43;5.00;;;7.80;72.90;;;;;;5029385;28;20052;-72
2022/04/29 05:02:10;;;;;;;6.47;5.03;;;7.90;73.00;;;;;;5042977;28;20041;-71
2022/04/29 05:04:36;;;;;;;6.85;4.78;;;7.90;73.00;;;;;;5045287;28;20031;-72
2022/04/29 05:07:03;;;;;;;7.93;6.07;;;7.90;73.10;;;;;;5050603;28;20044;-71
2022/04/29 05:09:28;;;;;;;6.57;4.78;;;7.90;73.10;;;;;;5034745;28;20040;-71
2022/04/29 05:11:54;;;;;;;7.30;4.72;;;7.90;73.20;;;;;;5043763;28;20060;-71
2022/04/29 05:14:19;;;;;;;8.55;4.40;;;7.90;73.10;;;;;;5032183;28;20085;-72
2022/04/29 05:16:45;;;;;;;7.10;4.90;;;7.90;73.10;;;;;;5030408;28;20560;-72
2022/04/29 05:19:10;;;;;;;8.25;5.28;;;8.00;73.20;;;;;;5051543;28;20516;-71
2022/04/29 05:21:36;;;;;;;6.72;4.65;;;7.90;73.20;;;;;;5052987;28;20041;-71
2022/04/29 05:24:02;;;;;;;6.93;4.25;;;7.90;73.30;;;;;;5025935;28;20093;-71
2022/04/29 05:26:27;;;;;;;6.15;4.65;;;8.00;73.50;;;;;;5022123;28;20028;-71
2022/04/29 05:28:53;;;;;;;6.22;4.88;;;7.90;73.40;;;;;;5037056;28;20057;-71
2022/04/29 05:31:18;;;;;;;10.48;5.85;;;8.00;73.50;;;;;;5025886;28;20053;-71
2022/04/29 05:33:44;;;;;;;7.45;4.78;;;8.00;73.60;;;;;;5045268;28;20056;-71
2022/04/29 05:36:09;;;;;;;6.85;4.40;;;8.00;73.70;;;;;;5027358;28;20076;-72
2022/04/29 05:44:03;;;;;;;10.77;5.93;;;8.10;73.60;;;;;;5016642;28;20103;-71
2022/04/29 05:46:29;;;;;;;7.30;5.20;;;8.10;73.70;;;;;;5035069;28;20068;-71
2022/04/29 05:48:54;;;;;;;10.00;5.50;;;8.10;73.90;;;;;;5038417;28;20110;-72
2022/04/29 05:51:20;;;;;;;8.32;6.68;;;8.20;73.90;;;;;;5029965;28;20070;-72
2022/04/29 05:53:45;;;;;;;7.68;6.18;;;8.20;74.00;;;;;;5063067;28;20037;-72
2022/04/29 05:56:11;;;;;;;7.35;5.28;;;8.20;74.10;;;;;;5041533;28;20102;-71
2022/04/29 05:58:37;;;;;;;13.45;6.80;;;8.30;74.20;;;;;;5049026;28;20062;-71
2022/04/29 06:01:02;;;;;;;8.30;6.03;;;8.30;74.20;;;;;;5041885;28;20029;-72
2022/04/29 06:03:28;;;;;;;11.55;7.15;;;8.40;74.30;;;;;;5027239;28;20033;-71
2022/04/29 06:05:53;;;;;;;8.20;5.00;;;8.50;74.30;;;;;;5042005;28;20040;-72
2022/04/29 06:08:19;;;;;;;8.57;6.15;;;8.60;74.40;;;;;;5048176;28;20115;-72
2022/04/29 06:10:45;;;;;;;10.68;5.93;;;8.70;74.30;;;;;;5043585;28;20037;-71
2022/04/29 06:13:11;;;;;;;7.75;6.00;;;8.70;74.30;;;;;;5048846;28;20032;-73
2022/04/29 06:15:36;;;;;;;12.30;7.00;;;8.90;74.40;;;;;;5025885;28;20029;-71
2022/04/29 06:18:02;;;;;;;7.45;5.38;;;9.00;74.40;;;;;;5059663;28;20417;-71
2022/04/29 06:20:29;;;;;;;6.88;5.40;;;9.10;74.40;;;;;;5050692;28;20128;-72
2022/04/29 06:22:55;;;;;;;8.50;5.20;;;9.20;74.20;;;;;;5041228;28;20028;-71
2022/04/29 06:25:21;;;;;;;9.02;5.72;;;9.30;74.10;;;;;;5029117;28;20028;-72
2022/04/29 06:27:46;;;;;;;9.80;5.78;;;9.50;74.10;;;;;;5018316;28;20037;-71
2022/04/29 06:30:12;;;;;;;9.40;5.93;;;9.60;74.00;;;;;;5058986;28;20655;-72
2022/04/29 06:32:38;;;;;;;7.47;5.60;;;9.70;73.90;;;;;;5027210;28;20048;-73
2022/04/29 06:35:06;;;;;;;6.25;5.40;;;9.90;73.90;;;;;;5038956;28;20032;-72
2022/04/29 06:37:32;;;;;;;8.73;4.88;;;10.00;73.70;;;;;;5036197;28;20048;-73
2022/04/29 06:39:58;;;;;;;9.85;5.90;;;10.10;73.60;;;;;;5049703;28;20044;-71
2022/04/29 06:42:23;;;;;;;10.88;5.97;;;10.20;73.50;;;;;;5048891;28;20049;-71
2022/04/29 06:44:49;;;;;;;8.07;6.32;;;10.30;73.40;;;;;;5040233;28;20037;-72
2022/04/29 06:47:14;;;;;;;9.75;6.55;;;10.40;73.30;;;;;;5022756;28;20041;-72
2022/04/29 06:49:40;;;;;;;12.70;5.93;;;10.50;73.20;;;;;;5014767;28;20097;-73
2022/04/29 06:52:06;;;;;;;7.43;5.95;;;10.70;73.20;;;;;;5060826;28;20063;-73
2022/04/29 06:54:32;;;;;;;13.50;6.18;;;10.80;73.00;;;;;;5008557;28;22354;-72
2022/04/29 06:56:57;;;;;;;12.75;6.32;;;11.00;72.80;;;;;;5027944;28;20039;-72
2022/04/29 06:59:23;;;;;;;9.65;6.30;;;11.10;72.50;;;;;;5058616;28;20025;-72
2022/04/29 07:01:49;;;;;;;10.55;6.25;;;11.30;72.30;;;;;;5040327;28;20052;-72
2022/04/29 07:04:14;;;;;;;7.55;6.35;;;11.40;71.90;;;;;;5013661;28;21918;-72
2022/04/29 07:06:40;;;;;;;8.35;5.53;;;11.50;71.70;;;;;;5041425;28;20656;-71
2022/04/29 07:09:05;;;;;;;16.00;5.72;;;11.60;71.50;;;;;;5029838;28;20068;-72
2022/04/29 07:11:31;;;;;;;8.70;5.88;;;11.70;71.40;;;;;;5051159;28;20040;-72
2022/04/29 07:13:57;;;;;;;11.82;7.20;;;11.80;71.30;;;;;;5046991;28;20047;-72
2022/04/29 07:16:23;;;;;;;11.30;7.15;;;12.00;71.20;;;;;;5027244;28;20047;-72
2022/04/29 07:18:48;;;;;;;13.45;6.68;;;12.10;71.00;;;;;;5020057;28;20035;-72
2022/04/29 07:21:14;;;;;;;10.50;6.78;;;12.20;70.80;;;;;;5039223;28;20095;-72
2022/04/29 07:23:39;;;;;;;13.52;7.32;;;12.40;70.60;;;;;;5038860;28;20110;-71
2022/04/29 07:26:05;;;;;;;11.60;6.50;;;12.50;70.40;;;;;;5049793;28;20265;-71
2022/04/29 07:28:30;;;;;;;13.63;6.60;;;12.60;70.30;;;;;;5059693;28;20087;-73
2022/04/29 07:30:57;;;;;;;9.18;6.53;;;12.70;70.20;;;;;;5040566;28;20608;-71
2022/04/29 07:33:24;;;;;;;8.52;6.68;;;12.80;70.10;;;;;;5041267;28;20037;-72
2022/04/29 07:44:03;;;;;;;13.13;6.68;;;13.30;68.90;;;;;;5001171;28;20033;-72
2022/04/29 07:46:28;;;;;;;8.68;5.95;;;13.40;68.70;;;;;;5022816;28;20049;-72
2022/04/29 07:48:54;;;;;;;11.38;6.97;;;13.50;68.50;;;;;;5034933;28;20189;-72
2022/04/29 07:51:19;;;;;;;12.00;7.30;;;13.60;68.20;;;;;;5037434;28;20069;-72
2022/04/29 07:53:45;;;;;;;15.35;7.40;;;13.70;68.00;;;;;;5026541;28;20548;-72
2022/04/29 07:56:10;;;;;;;7.05;6.03;;;13.80;67.80;;;;;;5036727;28;20484;-72
2022/04/29 07:58:36;;;;;;;7.78;6.53;;;13.90;67.60;;;;;;5056269;28;20485;-72
2022/04/29 08:01:03;;;;;;;10.35;6.25;;;14.10;67.40;;;;;;5040132;28;20044;-73
2022/04/29 08:03:29;;;;;;;13.38;7.68;;;14.20;67.20;;;;;;5022280;28;20393;-72
2022/04/29 08:05:54;;;;;;;9.98;6.50;;;14.40;67.00;;;;;;5031433;28;20037;-73
2022/04/29 08:08:20;;;;;;;10.27;7.43;;;14.60;66.90;;;;;;5051277;28;20050;-72
2022/04/29 08:10:46;;;;;;;8.65;6.53;;;14.80;66.60;;;;;;5060935;28;20047;-72
2022/04/29 08:13:11;;;;;;;9.18;6.60;;;15.00;66.20;;;;;;5015536;28;20034;-72
2022/04/29 08:15:37;;;;;;;11.57;6.68;;;15.20;65.90;;;;;;5043662;28;20029;-72
2022/04/29 08:18:03;;;;;;;8.05;6.97;;;15.50;65.50;;;;;;5060055;28;20033;-72
2022/04/29 08:20:29;;;;;;;10.00;6.78;;;15.60;65.10;;;;;;5010689;28;20112;-72
2022/04/29 08:22:54;;;;;;;6.55;5.60;;;15.80;64.50;;;;;;5029985;28;20576;-72
2022/04/29 08:25:20;;;;;;;7.72;5.78;;;16.00;64.10;;;;;;5041670;28;20765;-72
2022/04/29 08:27:46;;;;;;;8.18;6.38;;;16.10;64.00;;;;;;5042119;28;20049;-72
2022/04/29 08:30:12;;;;;;;9.77;6.53;;;16.30;63.80;;;;;;5032785;28;20041;-72
2022/04/29 08:32:44;;;;;;;10.40;6.75;;;16.40;63.50;;;;;;5016667;28;20805;-75
2022/04/29 08:35:10;;;;;;;6.13;5.53;;;16.50;62.90;;;;;;5033017;28;20689;-74
2022/04/29 08:37:41;;;;;;;7.82;6.68;;;16.60;62.70;;;;;;5047416;28;20055;-74
2022/04/29 08:40:07;;;;;;;7.40;6.70;;;16.80;62.50;;;;;;5010460;28;20037;-74
2022/04/29 08:42:37;;;;;;;10.15;6.85;;;16.90;62.20;;;;;;5038007;28;20119;-74
2022/04/29 08:45:06;;;;;;;8.88;7.00;;;17.10;61.80;;;;;;5019742;28;20091;-74
2022/04/29 08:47:35;;;;;;;8.00;6.25;;;17.20;61.30;;;;;;5011902;28;20104;-74
2022/04/29 08:50:01;;;;;;;7.68;6.20;;;17.40;60.80;;;;;;5021517;28;20119;-74
2022/04/29 08:52:26;;;;;;;9.07;6.13;;;17.50;60.50;;;;;;5040380;28;20124;-74
2022/04/29 09:00:22;;;;;;;8.55;5.63;;;18.00;59.70;;;;;;5033159;28;20136;-74
2022/04/29 09:02:48;;;;;;;6.80;5.40;;;18.20;59.40;;;;;;5039502;28;20128;-74
2022/04/29 09:05:13;;;;;;;8.30;6.40;;;18.40;59.20;;;;;;5033858;28;20640;-72
2022/04/29 09:08:01;;;;;;;6.00;5.20;;;18.50;58.80;;;;;;5044244;28;20497;-72
2022/04/29 09:10:29;;;;;;;13.15;6.38;;;18.70;58.20;;;;;;5020337;28;20043;-72
2022/04/29 09:12:55;;;;;;;6.93;5.85;;;18.90;58.20;;;;;;5009280;28;20037;-72
2022/04/29 09:15:20;;;;;;;10.73;7.10;;;19.00;57.80;;;;;;5026722;28;20102;-72
2022/04/29 09:17:50;;;;;;;8.05;6.75;;;19.20;57.40;;;;;;5011366;28;20044;-72
2022/04/29 09:20:21;;;;;;;6.82;5.45;;;19.20;57.00;;;;;;5017155;28;20463;-71
2022/04/29 09:22:49;;;;;;;6.85;5.95;;;19.30;56.70;;;;;;5024326;28;20036;-72
2022/04/29 09:25:14;;;;;;;10.07;5.85;;;19.40;56.60;;;;;;5025449;28;20122;-72
2022/04/29 09:28:00;;;;;;;7.15;5.20;;;19.50;56.40;;;;;;5046787;28;20526;-72
2022/04/29 09:30:39;;;;;;;11.52;6.15;;;19.50;55.90;;;;;;5011444;28;20041;-72
2022/04/29 09:33:06;;;;;;;9.10;6.60;;;19.70;55.60;;;;;;5023975;28;20036;-72
2022/04/29 09:35:36;;;;;;;12.55;6.82;;;19.80;55.70;;;;;;5018053;28;20086;-71
2022/04/29 09:40:49;;;;;;;6.97;5.70;;;20.10;54.90;;;;;;5025829;28;20563;-72
2022/04/29 09:43:15;;;;;;;8.30;5.18;;;20.30;54.80;;;;;;5049001;28;20073;-72
2022/04/29 09:45:40;;;;;;;12.48;6.95;;;20.40;54.70;;;;;;5042676;28;20127;-71
2022/04/29 09:48:08;;;;;;;9.18;5.63;;;20.60;54.30;;;;;;5057576;28;20048;-72
2022/04/29 09:50:52;;;;;;;7.13;5.30;;;20.70;54.00;;;;;;5014638;28;20041;-72
2022/04/29 09:53:20;;;;;;;11.13;6.60;;;20.80;53.70;;;;;;5031029;28;20463;-72
2022/04/29 09:56:07;;;;;;;6.72;5.80;;;21.00;53.70;;;;;;5010760;28;20060;-73
2022/04/29 09:58:33;;;;;;;9.68;5.60;;;21.20;52.80;;;;;;5041289;28;20526;-71
2022/04/29 10:01:00;;;;;;;12.68;5.55;;;21.40;53.10;;;;;;5009006;28;20025;-72
2022/04/29 10:03:26;;;;;;;7.18;5.55;;;21.50;52.80;;;;;;5058439;28;20048;-72
2022/04/29 10:05:52;;;;;;;9.20;4.80;;;21.70;52.60;;;;;;5024809;28;20509;-72
2022/04/29 10:08:18;;;;;;;6.97;4.53;;;21.90;52.10;;;;;;5008240;28;20041;-72
2022/04/29 10:10:44;;;;;;;7.97;5.38;;;22.10;51.80;;;;;;5032436;28;20701;-72
2022/04/29 10:13:10;;;;;;;10.07;4.47;;;22.30;51.40;;;;;;5030366;28;20626;-73
2022/04/29 10:15:36;;;;;;;7.20;4.20;;;22.40;50.80;;;;;;5041427;28;20052;-73
2022/04/29 10:23:32;;;;;;;7.30;4.68;;;22.80;49.50;;;;;;5026431;28;20610;-73
2022/04/29 10:25:57;;;;;;;3.88;2.97;;;22.90;49.30;;;;;;5042135;28;20033;-72
2022/04/29 10:28:23;;;;;;;3.20;2.92;;;23.00;49.20;;;;;;5030970;28;20408;-72
2022/04/29 10:31:09;;;;;;;6.15;3.42;;;23.10;49.00;;;;;;5040589;28;20412;-72
2022/04/29 10:33:36;;;;;;;5.60;3.35;;;23.20;48.00;;;;;;5041952;28;20032;-73
2022/04/29 10:36:06;;;;;;;3.33;3.03;;;23.30;48.40;;;;;;5056917;28;20048;-72
2022/04/29 10:38:34;;;;;;;4.30;3.20;;;23.40;47.60;;;;;;5027564;28;20064;-72
2022/04/29 10:41:19;;;;;;;6.78;3.25;;;23.50;47.10;;;;;;5049726;28;20051;-72
2022/04/29 10:43:48;;;;;;;3.83;3.53;;;23.70;45.50;;;;;;5050064;28;20425;-73
2022/04/29 10:46:15;;;;;;;3.20;2.78;;;23.80;46.40;;;;;;5047336;28;20040;-72
2022/04/29 10:48:41;;;;;;;3.92;3.10;;;23.90;46.00;;;;;;5001299;28;20074;-72
2022/04/29 10:51:25;;;;;;;3.08;2.78;;;24.10;45.70;;;;;;5052496;28;20173;-72
2022/04/29 10:53:52;;;;;;;3.90;2.63;;;24.20;44.70;;;;;;5036920;28;20493;-74
2022/04/29 10:56:30;;;;;;;4.40;2.38;;;24.30;45.00;;;;;;5027493;28;20030;-72
2022/04/29 10:59:09;;;;;;;4.22;2.72;;;24.50;43.10;;;;;;5034965;28;20037;-74
2022/04/29 11:01:35;;;;;;;2.25;1.80;;;24.50;43.70;;;;;;5021087;28;20029;-74
2022/04/29 11:04:01;;;;;;;3.80;2.20;;;24.50;43.40;;;;;;5029815;28;20041;-73
2022/04/29 11:06:47;;;;;;;3.33;1.85;;;24.50;43.10;;;;;;5018431;28;20123;-74
2022/04/29 11:09:28;;;;;;;2.25;1.73;;;24.60;40.90;;;;;;5018460;28;20045;-72
2022/04/29 11:12:03;;;;;;;2.17;1.90;;;24.50;40.90;;;;;;5010211;28;20110;-73
2022/04/29 11:14:29;;;;;;;3.78;2.20;;;24.60;41.20;;;;;;5010506;28;20033;-73
2022/04/29 11:16:56;;;;;;;3.22;2.40;;;24.70;41.70;;;;;;4968648;28;20041;-72
2022/04/29 11:19:28;;;;;;;3.33;2.58;;;24.70;41.20;;;;;;5037689;28;20029;-73
2022/04/29 11:24:46;;;;;;;6.57;2.35;;;24.80;40.20;;;;;;5038415;28;20483;-73
2022/04/29 11:27:12;;;;;;;5.53;2.92;;;25.00;40.50;;;;;;4987170;28;20029;-73
2022/04/29 11:29:44;;;;;;;3.10;2.45;;;25.10;40.30;;;;;;5038566;28;20382;-73
2022/04/29 11:32:10;;;;;;;13.82;2.15;;;25.20;39.70;;;;;;5030599;28;20399;-72
2022/04/29 11:34:44;;;;;;;12.95;3.05;;;25.40;40.10;;;;;;5019792;28;20065;-73
2022/04/29 11:37:10;;;;;;;5.63;2.70;;;25.60;39.90;;;;;;5038014;28;20154;-73
2022/04/29 11:39:35;;;;;;;3.83;2.10;;;25.90;39.70;;;;;;5020794;28;20383;-73
2022/04/29 11:42:02;;;;;;;2.50;2.28;;;26.20;39.60;;;;;;5021735;28;20075;-74
2022/04/29 11:44:34;;;;;;;5.38;2.58;;;26.50;39.10;;;;;;5021157;28;20063;-73
2022/04/29 11:47:00;;;;;;;3.08;2.53;;;26.70;38.30;;;;;;5024208;28;20037;-73
2022/04/29 11:49:32;;;;;;;3.35;2.70;;;27.00;38.50;;;;;;5008832;28;20037;-73
2022/04/29 11:52:39;;;;;;;2.97;2.67;;;27.30;38.20;;;;;;5020224;28;20139;-73
2022/04/29 11:55:12;;;;;;;3.15;2.58;;;27.50;37.90;;;;;;4947487;28;20046;-74
2022/04/29 11:57:49;;;;;;;3.88;2.60;;;27.80;37.30;;;;;;4956081;28;20046;-74
2022/04/29 12:00:28;;;;;;;3.40;2.15;;;27.90;36.80;;;;;;4947120;28;20534;-73
2022/04/29 12:02:54;;;;;;;2.08;1.77;;;28.20;35.90;;;;;;4966254;28;20043;-74
2022/04/29 12:05:23;;;;;;;2.80;2.10;;;28.20;36.70;;;;;;4951107;28;20042;-73
2022/04/29 12:07:49;;;;;;;2.83;2.10;;;28.40;36.60;;;;;;4957081;28;20035;-73
2022/04/29 12:10:15;;;;;;;3.38;2.45;;;28.50;36.50;;;;;;4974060;28;21602;-74
2022/04/29 12:12:41;;;;;;;3.10;2.03;;;28.60;36.20;;;;;;4961315;28;20125;-73
2022/04/29 12:15:10;;;;;;;3.15;2.10;;;28.60;35.90;;;;;;4958916;28;20495;-73
2022/04/29 12:17:38;;;;;;;5.55;2.30;;;28.70;35.50;;;;;;4957766;28;20062;-72
2022/04/29 12:20:04;;;;;;;2.03;1.70;;;28.80;35.50;;;;;;4939513;28;20031;-73
2022/04/29 12:22:32;;;;;;;3.85;2.13;;;28.90;35.50;;;;;;4952155;28;20510;-74
2022/04/29 12:25:16;;;;;;;2.88;2.30;;;29.00;35.40;;;;;;4965178;28;20379;-73
2022/04/29 12:27:41;;;;;;;3.17;2.15;;;29.10;35.20;;;;;;5006447;28;20485;-73
2022/04/29 12:36:07;;;;;;;3.42;2.20;;;29.30;34.60;;;;;;5005814;28;20476;-75
2022/04/29 12:38:36;;;;;;;3.17;2.08;;;29.40;33.80;;;;;;5035252;28;20040;-74
2022/04/29 12:41:15;;;;;;;2.10;1.90;;;29.40;34.40;;;;;;5024978;28;20520;-74
2022/04/29 12:43:43;;;;;;;4.00;1.83;;;29.30;33.40;;;;;;5007794;28;20036;-76
2022/04/29 12:46:15;;;;;;;2.63;1.98;;;29.40;34.20;;;;;;5027994;28;20107;-76
2022/04/29 12:48:47;;;;;;;2.25;1.95;;;29.60;34.10;;;;;;5026881;28;20044;-75
2022/04/29 12:51:28;;;;;;;2.65;2.38;;;29.70;33.80;;;;;;5041816;28;20116;-75
2022/04/29 12:53:54;;;;;;;1.70;1.60;;;29.90;32.80;;;;;;5047736;28;20052;-76
2022/04/29 12:56:33;;;;;;;3.80;2.00;;;30.00;33.60;;;;;;5040785;28;20029;-76
2022/04/29 12:59:00;;;;;;;2.85;1.90;;;30.10;32.60;;;;;;5020081;28;20030;-76
2022/04/29 13:01:25;;;;;;;3.55;1.98;;;30.30;33.40;;;;;;5038607;28;20036;-75
2022/04/29 13:03:55;;;;;;;2.97;2.00;;;30.30;33.20;;;;;;5044005;28;20033;-75
2022/04/29 13:06:24;;;;;;;6.10;1.70;;;30.30;32.70;;;;;;5021993;28;20052;-74
2022/04/29 13:08:56;;;;;;;3.85;2.08;;;30.40;32.60;;;;;;5043845;28;20037;-75
2022/04/29 13:11:22;;;;;;;3.20;1.75;;;30.40;31.70;;;;;;5007812;28;20033;-75
2022/04/29 13:13:51;;;;;;;2.65;2.45;;;30.40;31.90;;;;;;5056534;28;20406;-75
2022/04/29 13:16:17;;;;;;;3.83;1.70;;;30.30;31.40;;;;;;5030278;28;20570;-75
2022/04/29 13:18:43;;;;;;;1.42;1.33;;;30.30;31.30;;;;;;5057749;28;20048;-76
2022/04/29 13:21:10;;;;;;;4.65;1.85;;;30.20;31.30;;;;;;5028813;28;20040;-76
2022/04/29 13:23:36;;;;;;;3.15;2.10;;;30.20;31.30;;;;;;5043738;28;20040;-75
2022/04/29 13:26:02;;;;;;;1.70;1.60;;;30.20;31.10;;;;;;5028280;28;20033;-72
2022/04/29 13:28:31;;;;;;;3.05;1.50;;;30.10;30.90;;;;;;5058868;28;20040;-75
2022/04/29 13:31:00;;;;;;;3.97;1.65;;;30.00;31.00;;;;;;5026445;28;20049;-75